Aviation Digital Data Service (ADDS)

Output produced by METARs form (0718 UTC 19 February 2019)
found at http://www.aviationweather.gov/metar/data/
 
METAR text: UIII 190700Z 23002MPS CAVOK M03/M12 Q1015 R30/CLRD60 NOSIG RMK QFE717/0956
Conditions at: UIII (IRKUTSK , RU) observed 0700 UTC 19 February 2019
Temperature: -3.0°C (27°F)
Dewpoint: -12.0°C (10°F) [RH = 50%]
Pressure (altimeter): 29.97 inches Hg (1015.0 mb)
Winds: from the SW (230 degrees) at 5 MPH (4 knots; 2.1 m/s)
Visibility: 6 or more miles (10+ km)
Ceiling: ceiling and visibility are OK
Clouds: unknown
Weather: no significant weather observed at this time

METAR text: UIII 190630Z 24002MPS CAVOK M04/M11 Q1016 R30/60D NOSIG RMK QFE717/0956
Conditions at: UIII (IRKUTSK , RU) observed 0630 UTC 19 February 2019
Temperature: -4.0°C (25°F)
Dewpoint: -11.0°C (12°F) [RH = 58%]
Pressure (altimeter): 30.00 inches Hg (1016.0 mb)
Winds: from the WSW (240 degrees) at 5 MPH (4 knots; 2.1 m/s)
Visibility: 6 or more miles (10+ km)
Ceiling: ceiling and visibility are OK
Clouds: unknown
Weather: no significant weather observed at this time

METAR text: UIII 190600Z 23002MPS CAVOK M05/M11 Q1016 R30/CLRD60 NOSIG RMK QFE717/0956
Conditions at: UIII (IRKUTSK , RU) observed 0600 UTC 19 February 2019
Temperature: -5.0°C (23°F)
Dewpoint: -11.0°C (12°F) [RH = 63%]
Pressure (altimeter): 30.00 inches Hg (1016.0 mb)
Winds: from the SW (230 degrees) at 5 MPH (4 knots; 2.1 m/s)
Visibility: 6 or more miles (10+ km)
Ceiling: ceiling and visibility are OK
Clouds: unknown
Weather: no significant weather observed at this time

METAR text: UIII 190530Z VRB01MPS CAVOK M06/M12 Q1016 R30/60D NOSIG RMK QFE717/0956
Conditions at: UIII (IRKUTSK , RU) observed 0530 UTC 19 February 2019
Temperature: -6.0°C (21°F)
Dewpoint: -12.0°C (10°F) [RH = 62%]
Pressure (altimeter): 30.00 inches Hg (1016.0 mb)
Winds: variable direction winds at 2 MPH (2 knots; 1.0 m/s)
Visibility: 6 or more miles (10+ km)
Ceiling: ceiling and visibility are OK
Clouds: unknown
Weather: no significant weather observed at this time

METAR text: UIII 190500Z 23003MPS 180V240 CAVOK M07/M12 Q1016 R30/60D NOSIG RMK QFE717/0956
Conditions at: UIII (IRKUTSK , RU) observed 0500 UTC 19 February 2019
Temperature: -7.0°C (19°F)
Dewpoint: -12.0°C (10°F) [RH = 67%]
Pressure (altimeter): 30.00 inches Hg (1016.0 mb)
Winds: from the SW (230 degrees) at 7 MPH (6 knots; 3.1 m/s)
Visibility: 6 or more miles (10+ km)
Ceiling: ceiling and visibility are OK
Clouds: unknown
Weather: no significant weather observed at this time

METAR text: UIII 190430Z 00000MPS CAVOK M09/M15 Q1016 R30/60D NOSIG RMK QFE717/0956
Conditions at: UIII (IRKUTSK , RU) observed 0430 UTC 19 February 2019
Temperature: -9.0°C (16°F)
Dewpoint: -15.0°C ( 5°F) [RH = 62%]
Pressure (altimeter): 30.00 inches Hg (1016.0 mb)
Winds: calm
Visibility: 6 or more miles (10+ km)
Ceiling: ceiling and visibility are OK
Clouds: unknown
Weather: no significant weather observed at this time

METAR text: UIII 190400Z VRB01MPS CAVOK M09/M15 Q1016 R30/60D NOSIG RMK QFE717/0956
Conditions at: UIII (IRKUTSK , RU) observed 0400 UTC 19 February 2019
Temperature: -9.0°C (16°F)
Dewpoint: -15.0°C ( 5°F) [RH = 62%]
Pressure (altimeter): 30.00 inches Hg (1016.0 mb)
Winds: variable direction winds at 2 MPH (2 knots; 1.0 m/s)
Visibility: 6 or more miles (10+ km)
Ceiling: ceiling and visibility are OK
Clouds: unknown
Weather: no significant weather observed at this time

METAR text: UIII 190330Z 20002MPS 170V250 CAVOK M11/M16 Q1016 R30/CLRD60 NOSIG RMK QFE717/0956
Conditions at: UIII (IRKUTSK , RU) observed 0330 UTC 19 February 2019
Temperature: -11.0°C (12°F)
Dewpoint: -16.0°C ( 3°F) [RH = 67%]
Pressure (altimeter): 30.00 inches Hg (1016.0 mb)
Winds: from the SSW (200 degrees) at 5 MPH (4 knots; 2.1 m/s)
Visibility: 6 or more miles (10+ km)
Ceiling: ceiling and visibility are OK
Clouds: unknown
Weather: no significant weather observed at this time

METAR text: UIII 190300Z 11001MPS CAVOK M12/M17 Q1016 R12/60D NOSIG RMK QFE719/0959
Conditions at: UIII (IRKUTSK , RU) observed 0300 UTC 19 February 2019
Temperature: -12.0°C (10°F)
Dewpoint: -17.0°C ( 1°F) [RH = 66%]
Pressure (altimeter): 30.00 inches Hg (1016.0 mb)
Winds: from the ESE (110 degrees) at 2 MPH (2 knots; 1.0 m/s)
Visibility: 6 or more miles (10+ km)
Ceiling: ceiling and visibility are OK
Clouds: unknown
Weather: no significant weather observed at this time

METAR text: UIII 190230Z 07001MPS CAVOK M15/M18 Q1016 R12/60D NOSIG RMK QFE719/0959
Conditions at: UIII (IRKUTSK , RU) observed 0230 UTC 19 February 2019
Temperature: -15.0°C ( 5°F)
Dewpoint: -18.0°C (-0°F) [RH = 78%]
Pressure (altimeter): 30.00 inches Hg (1016.0 mb)
Winds: from the ENE (70 degrees) at 2 MPH (2 knots; 1.0 m/s)
Visibility: 6 or more miles (10+ km)
Ceiling: ceiling and visibility are OK
Clouds: unknown
Weather: no significant weather observed at this time

METAR text: UIII 190200Z 10002MPS CAVOK M17/M20 Q1016 R12/CLRD60 NOSIG RMK QFE719/0959
Conditions at: UIII (IRKUTSK , RU) observed 0200 UTC 19 February 2019
Temperature: -17.0°C ( 1°F)
Dewpoint: -20.0°C (-4°F) [RH = 77%]
Pressure (altimeter): 30.00 inches Hg (1016.0 mb)
Winds: from the E (100 degrees) at 5 MPH (4 knots; 2.1 m/s)
Visibility: 6 or more miles (10+ km)
Ceiling: ceiling and visibility are OK
Clouds: unknown
Weather: no significant weather observed at this time

METAR text: UIII 190130Z 09002MPS CAVOK M17/M20 Q1015 R12/CLRD60 NOSIG RMK QFE719/0959
Conditions at: UIII (IRKUTSK , RU) observed 0130 UTC 19 February 2019
Temperature: -17.0°C ( 1°F)
Dewpoint: -20.0°C (-4°F) [RH = 77%]
Pressure (altimeter): 29.97 inches Hg (1015.0 mb)
Winds: from the E (90 degrees) at 5 MPH (4 knots; 2.1 m/s)
Visibility: 6 or more miles (10+ km)
Ceiling: ceiling and visibility are OK
Clouds: unknown
Weather: no significant weather observed at this time

METAR text: UIII 190100Z 10003MPS CAVOK M17/M19 Q1015 R12/60D NOSIG RMK QFE719/0959
Conditions at: UIII (IRKUTSK , RU) observed 0100 UTC 19 February 2019
Temperature: -17.0°C ( 1°F)
Dewpoint: -19.0°C (-2°F) [RH = 84%]
Pressure (altimeter): 29.97 inches Hg (1015.0 mb)
Winds: from the E (100 degrees) at 7 MPH (6 knots; 3.1 m/s)
Visibility: 6 or more miles (10+ km)
Ceiling: ceiling and visibility are OK
Clouds: unknown
Weather: no significant weather observed at this time

METAR text: UIII 190030Z 09002MPS CAVOK M19/M21 Q1014 R12/CLRD60 NOSIG RMK QFE719/0958
Conditions at: UIII (IRKUTSK , RU) observed 0030 UTC 19 February 2019
Temperature: -19.0°C (-2°F)
Dewpoint: -21.0°C (-6°F) [RH = 84%]
Pressure (altimeter): 29.94 inches Hg (1014.0 mb)
Winds: from the E (90 degrees) at 5 MPH (4 knots; 2.1 m/s)
Visibility: 6 or more miles (10+ km)
Ceiling: ceiling and visibility are OK
Clouds: unknown
Weather: no significant weather observed at this time

METAR text: UIII 190000Z 09003MPS CAVOK M19/M21 Q1014 R12/60D NOSIG RMK QFE718/0958
Conditions at: UIII (IRKUTSK , RU) observed 0000 UTC 19 February 2019
Temperature: -19.0°C (-2°F)
Dewpoint: -21.0°C (-6°F) [RH = 84%]
Pressure (altimeter): 29.94 inches Hg (1014.0 mb)
Winds: from the E (90 degrees) at 7 MPH (6 knots; 3.1 m/s)
Visibility: 6 or more miles (10+ km)
Ceiling: ceiling and visibility are OK
Clouds: unknown
Weather: no significant weather observed at this time

METAR text: UIII 182330Z 10003MPS CAVOK M18/M20 Q1013 R12/60D NOSIG RMK QFE718/0957
Conditions at: UIII (IRKUTSK , RU) observed 2330 UTC 18 February 2019
Temperature: -18.0°C (-0°F)
Dewpoint: -20.0°C (-4°F) [RH = 84%]
Pressure (altimeter): 29.91 inches Hg (1013.0 mb)
Winds: from the E (100 degrees) at 7 MPH (6 knots; 3.1 m/s)
Visibility: 6 or more miles (10+ km)
Ceiling: ceiling and visibility are OK
Clouds: unknown
Weather: no significant weather observed at this time

METAR text: UIII 182300Z 09001MPS CAVOK M19/M20 Q1013 R12/CLRD60 NOSIG RMK QFE718/0957
Conditions at: UIII (IRKUTSK , RU) observed 2300 UTC 18 February 2019
Temperature: -19.0°C (-2°F)
Dewpoint: -20.0°C (-4°F) [RH = 92%]
Pressure (altimeter): 29.91 inches Hg (1013.0 mb)
Winds: from the E (90 degrees) at 2 MPH (2 knots; 1.0 m/s)
Visibility: 6 or more miles (10+ km)
Ceiling: ceiling and visibility are OK
Clouds: unknown
Weather: no significant weather observed at this time

METAR text: UIII 182230Z 11003MPS CAVOK M18/M20 Q1013 R12/CLRD60 NOSIG RMK QFE718/0957
Conditions at: UIII (IRKUTSK , RU) observed 2230 UTC 18 February 2019
Temperature: -18.0°C (-0°F)
Dewpoint: -20.0°C (-4°F) [RH = 84%]
Pressure (altimeter): 29.91 inches Hg (1013.0 mb)
Winds: from the ESE (110 degrees) at 7 MPH (6 knots; 3.1 m/s)
Visibility: 6 or more miles (10+ km)
Ceiling: ceiling and visibility are OK
Clouds: unknown
Weather: no significant weather observed at this time

METAR text: UIII 182200Z 10003MPS CAVOK M19/M21 Q1013 R12/CLRD60 NOSIG RMK QFE717/0957
Conditions at: UIII (IRKUTSK , RU) observed 2200 UTC 18 February 2019
Temperature: -19.0°C (-2°F)
Dewpoint: -21.0°C (-6°F) [RH = 84%]
Pressure (altimeter): 29.91 inches Hg (1013.0 mb)
Winds: from the E (100 degrees) at 7 MPH (6 knots; 3.1 m/s)
Visibility: 6 or more miles (10+ km)
Ceiling: ceiling and visibility are OK
Clouds: unknown
Weather: no significant weather observed at this time

METAR text: UIII 182130Z 10003MPS CAVOK M17/M18 Q1012 R12/60D NOSIG RMK QFE717/0956
Conditions at: UIII (IRKUTSK , RU) observed 2130 UTC 18 February 2019
Temperature: -17.0°C ( 1°F)
Dewpoint: -18.0°C (-0°F) [RH = 92%]
Pressure (altimeter): 29.88 inches Hg (1012.0 mb)
Winds: from the E (100 degrees) at 7 MPH (6 knots; 3.1 m/s)
Visibility: 6 or more miles (10+ km)
Ceiling: ceiling and visibility are OK
Clouds: unknown
Weather: no significant weather observed at this time

METAR text: UIII 182100Z 10002MPS CAVOK M18/M19 Q1012 R12/60D NOSIG RMK QFE717/0956
Conditions at: UIII (IRKUTSK , RU) observed 2100 UTC 18 February 2019
Temperature: -18.0°C (-0°F)
Dewpoint: -19.0°C (-2°F) [RH = 92%]
Pressure (altimeter): 29.88 inches Hg (1012.0 mb)
Winds: from the E (100 degrees) at 5 MPH (4 knots; 2.1 m/s)
Visibility: 6 or more miles (10+ km)
Ceiling: ceiling and visibility are OK
Clouds: unknown
Weather: no significant weather observed at this time

METAR text: UIII 182030Z 11003MPS CAVOK M18/M20 Q1012 R12/60D NOSIG RMK QFE717/0956
Conditions at: UIII (IRKUTSK , RU) observed 2030 UTC 18 February 2019
Temperature: -18.0°C (-0°F)
Dewpoint: -20.0°C (-4°F) [RH = 84%]
Pressure (altimeter): 29.88 inches Hg (1012.0 mb)
Winds: from the ESE (110 degrees) at 7 MPH (6 knots; 3.1 m/s)
Visibility: 6 or more miles (10+ km)
Ceiling: ceiling and visibility are OK
Clouds: unknown
Weather: no significant weather observed at this time

METAR text: UIII 182000Z 09003MPS CAVOK M18/M20 Q1012 R12/CLRD60 NOSIG RMK QFE717/0956
Conditions at: UIII (IRKUTSK , RU) observed 2000 UTC 18 February 2019
Temperature: -18.0°C (-0°F)
Dewpoint: -20.0°C (-4°F) [RH = 84%]
Pressure (altimeter): 29.88 inches Hg (1012.0 mb)
Winds: from the E (90 degrees) at 7 MPH (6 knots; 3.1 m/s)
Visibility: 6 or more miles (10+ km)
Ceiling: ceiling and visibility are OK
Clouds: unknown
Weather: no significant weather observed at this time

METAR text: UIII 181930Z 11003MPS CAVOK M14/M17 Q1012 R12/60D NOSIG RMK QFE717/0956
Conditions at: UIII (IRKUTSK , RU) observed 1930 UTC 18 February 2019
Temperature: -14.0°C ( 7°F)
Dewpoint: -17.0°C ( 1°F) [RH = 78%]
Pressure (altimeter): 29.88 inches Hg (1012.0 mb)
Winds: from the ESE (110 degrees) at 7 MPH (6 knots; 3.1 m/s)
Visibility: 6 or more miles (10+ km)
Ceiling: ceiling and visibility are OK
Clouds: unknown
Weather: no significant weather observed at this time

METAR text: UIII 181900Z 09003MPS CAVOK M14/M16 Q1012 R12/60D NOSIG RMK QFE717/0956
Conditions at: UIII (IRKUTSK , RU) observed 1900 UTC 18 February 2019
Temperature: -14.0°C ( 7°F)
Dewpoint: -16.0°C ( 3°F) [RH = 85%]
Pressure (altimeter): 29.88 inches Hg (1012.0 mb)
Winds: from the E (90 degrees) at 7 MPH (6 knots; 3.1 m/s)
Visibility: 6 or more miles (10+ km)
Ceiling: ceiling and visibility are OK
Clouds: unknown
Weather: no significant weather observed at this time

METAR text: UIII 181830Z 08003MPS CAVOK M14/M17 Q1012 R12/CLRD60 NOSIG RMK QFE717/0956
Conditions at: UIII (IRKUTSK , RU) observed 1830 UTC 18 February 2019
Temperature: -14.0°C ( 7°F)
Dewpoint: -17.0°C ( 1°F) [RH = 78%]
Pressure (altimeter): 29.88 inches Hg (1012.0 mb)
Winds: from the E (80 degrees) at 7 MPH (6 knots; 3.1 m/s)
Visibility: 6 or more miles (10+ km)
Ceiling: ceiling and visibility are OK
Clouds: unknown
Weather: no significant weather observed at this time

METAR text: UIII 181800Z 09003MPS CAVOK M14/M16 Q1012 R12/60D NOSIG RMK QFE717/0956
Conditions at: UIII (IRKUTSK , RU) observed 1800 UTC 18 February 2019
Temperature: -14.0°C ( 7°F)
Dewpoint: -16.0°C ( 3°F) [RH = 85%]
Pressure (altimeter): 29.88 inches Hg (1012.0 mb)
Winds: from the E (90 degrees) at 7 MPH (6 knots; 3.1 m/s)
Visibility: 6 or more miles (10+ km)
Ceiling: ceiling and visibility are OK
Clouds: unknown
Weather: no significant weather observed at this time

METAR text: UIII 181730Z 09002MPS CAVOK M14/M16 Q1012 R12/CLRD60 NOSIG RMK QFE717/0956
Conditions at: UIII (IRKUTSK , RU) observed 1730 UTC 18 February 2019
Temperature: -14.0°C ( 7°F)
Dewpoint: -16.0°C ( 3°F) [RH = 85%]
Pressure (altimeter): 29.88 inches Hg (1012.0 mb)
Winds: from the E (90 degrees) at 5 MPH (4 knots; 2.1 m/s)
Visibility: 6 or more miles (10+ km)
Ceiling: ceiling and visibility are OK
Clouds: unknown
Weather: no significant weather observed at this time

METAR text: UIII 181700Z 10002MPS CAVOK M13/M16 Q1012 R12/60D NOSIG RMK QFE717/0956
Conditions at: UIII (IRKUTSK , RU) observed 1700 UTC 18 February 2019
Temperature: -13.0°C ( 9°F)
Dewpoint: -16.0°C ( 3°F) [RH = 78%]
Pressure (altimeter): 29.88 inches Hg (1012.0 mb)
Winds: from the E (100 degrees) at 5 MPH (4 knots; 2.1 m/s)
Visibility: 6 or more miles (10+ km)
Ceiling: ceiling and visibility are OK
Clouds: unknown
Weather: no significant weather observed at this time

METAR text: UIII 181630Z 11002MPS CAVOK M13/M16 Q1012 R12/60D NOSIG RMK QFE717/0956
Conditions at: UIII (IRKUTSK , RU) observed 1630 UTC 18 February 2019
Temperature: -13.0°C ( 9°F)
Dewpoint: -16.0°C ( 3°F) [RH = 78%]
Pressure (altimeter): 29.88 inches Hg (1012.0 mb)
Winds: from the ESE (110 degrees) at 5 MPH (4 knots; 2.1 m/s)
Visibility: 6 or more miles (10+ km)
Ceiling: ceiling and visibility are OK
Clouds: unknown
Weather: no significant weather observed at this time

METAR text: UIII 181600Z 11003MPS CAVOK M13/M16 Q1011 R12/60D NOSIG RMK QFE716/0955
Conditions at: UIII (IRKUTSK , RU) observed 1600 UTC 18 February 2019
Temperature: -13.0°C ( 9°F)
Dewpoint: -16.0°C ( 3°F) [RH = 78%]
Pressure (altimeter): 29.85 inches Hg (1011.0 mb)
Winds: from the ESE (110 degrees) at 7 MPH (6 knots; 3.1 m/s)
Visibility: 6 or more miles (10+ km)
Ceiling: ceiling and visibility are OK
Clouds: unknown
Weather: no significant weather observed at this time

METAR text: UIII 181530Z 10003MPS CAVOK M13/M16 Q1011 R12/CLRD60 NOSIG RMK QFE716/0955
Conditions at: UIII (IRKUTSK , RU) observed 1530 UTC 18 February 2019
Temperature: -13.0°C ( 9°F)
Dewpoint: -16.0°C ( 3°F) [RH = 78%]
Pressure (altimeter): 29.85 inches Hg (1011.0 mb)
Winds: from the E (100 degrees) at 7 MPH (6 knots; 3.1 m/s)
Visibility: 6 or more miles (10+ km)
Ceiling: ceiling and visibility are OK
Clouds: unknown
Weather: no significant weather observed at this time

METAR text: UIII 181500Z VRB01MPS CAVOK M13/M16 Q1011 R12/60D NOSIG RMK QFE716/0955
Conditions at: UIII (IRKUTSK , RU) observed 1500 UTC 18 February 2019
Temperature: -13.0°C ( 9°F)
Dewpoint: -16.0°C ( 3°F) [RH = 78%]
Pressure (altimeter): 29.85 inches Hg (1011.0 mb)
Winds: variable direction winds at 2 MPH (2 knots; 1.0 m/s)
Visibility: 6 or more miles (10+ km)
Ceiling: ceiling and visibility are OK
Clouds: unknown
Weather: no significant weather observed at this time

METAR text: UIII 181430Z 16004MPS CAVOK M13/M16 Q1011 R12/60D NOSIG RMK QFE716/0955
Conditions at: UIII (IRKUTSK , RU) observed 1430 UTC 18 February 2019
Temperature: -13.0°C ( 9°F)
Dewpoint: -16.0°C ( 3°F) [RH = 78%]
Pressure (altimeter): 29.85 inches Hg (1011.0 mb)
Winds: from the SSE (160 degrees) at 9 MPH (8 knots; 4.1 m/s)
Visibility: 6 or more miles (10+ km)
Ceiling: ceiling and visibility are OK
Clouds: unknown
Weather: no significant weather observed at this time

METAR text: UIII 181400Z 17006MPS CAVOK M12/M16 Q1011 R12/60D NOSIG RMK QFE716/0955
Conditions at: UIII (IRKUTSK , RU) observed 1400 UTC 18 February 2019
Temperature: -12.0°C (10°F)
Dewpoint: -16.0°C ( 3°F) [RH = 72%]
Pressure (altimeter): 29.85 inches Hg (1011.0 mb)
Winds: from the S (170 degrees) at 14 MPH (12 knots; 6.2 m/s)
Visibility: 6 or more miles (10+ km)
Ceiling: ceiling and visibility are OK
Clouds: unknown
Weather: no significant weather observed at this time

METAR text: UIII 181330Z 15004MPS CAVOK M12/M16 Q1011 R12/60D NOSIG RMK QFE716/0955
Conditions at: UIII (IRKUTSK , RU) observed 1330 UTC 18 February 2019
Temperature: -12.0°C (10°F)
Dewpoint: -16.0°C ( 3°F) [RH = 72%]
Pressure (altimeter): 29.85 inches Hg (1011.0 mb)
Winds: from the SSE (150 degrees) at 9 MPH (8 knots; 4.1 m/s)
Visibility: 6 or more miles (10+ km)
Ceiling: ceiling and visibility are OK
Clouds: unknown
Weather: no significant weather observed at this time

METAR text: UIII 181300Z 15004MPS CAVOK M12/M17 Q1011 R12/60D NOSIG RMK QFE716/0955
Conditions at: UIII (IRKUTSK , RU) observed 1300 UTC 18 February 2019
Temperature: -12.0°C (10°F)
Dewpoint: -17.0°C ( 1°F) [RH = 66%]
Pressure (altimeter): 29.85 inches Hg (1011.0 mb)
Winds: from the SSE (150 degrees) at 9 MPH (8 knots; 4.1 m/s)
Visibility: 6 or more miles (10+ km)
Ceiling: ceiling and visibility are OK
Clouds: unknown
Weather: no significant weather observed at this time

METAR text: UIII 181230Z 16005MPS CAVOK M11/M17 Q1011 R12/CLRD60 NOSIG RMK QFE716/0955
Conditions at: UIII (IRKUTSK , RU) observed 1230 UTC 18 February 2019
Temperature: -11.0°C (12°F)
Dewpoint: -17.0°C ( 1°F) [RH = 61%]
Pressure (altimeter): 29.85 inches Hg (1011.0 mb)
Winds: from the SSE (160 degrees) at 12 MPH (10 knots; 5.1 m/s)
Visibility: 6 or more miles (10+ km)
Ceiling: ceiling and visibility are OK
Clouds: unknown
Weather: no significant weather observed at this time

METAR text: UIII 181200Z 16005MPS CAVOK M11/M17 Q1011 R12/60D NOSIG RMK QFE716/0955
Conditions at: UIII (IRKUTSK , RU) observed 1200 UTC 18 February 2019
Temperature: -11.0°C (12°F)
Dewpoint: -17.0°C ( 1°F) [RH = 61%]
Pressure (altimeter): 29.85 inches Hg (1011.0 mb)
Winds: from the SSE (160 degrees) at 12 MPH (10 knots; 5.1 m/s)
Visibility: 6 or more miles (10+ km)
Ceiling: ceiling and visibility are OK
Clouds: unknown
Weather: no significant weather observed at this time

METAR text: UIII 181130Z 18005MPS CAVOK M09/M16 Q1011 R12/CLRD60 NOSIG RMK QFE716/0955
Conditions at: UIII (IRKUTSK , RU) observed 1130 UTC 18 February 2019
Temperature: -9.0°C (16°F)
Dewpoint: -16.0°C ( 3°F) [RH = 57%]
Pressure (altimeter): 29.85 inches Hg (1011.0 mb)
Winds: from the S (180 degrees) at 12 MPH (10 knots; 5.1 m/s)
Visibility: 6 or more miles (10+ km)
Ceiling: ceiling and visibility are OK
Clouds: unknown
Weather: no significant weather observed at this time

METAR text: UIII 181100Z 18004MPS CAVOK M08/M16 Q1010 R12/60D NOSIG RMK QFE716/0954
Conditions at: UIII (IRKUTSK , RU) observed 1100 UTC 18 February 2019
Temperature: -8.0°C (18°F)
Dewpoint: -16.0°C ( 3°F) [RH = 53%]
Pressure (altimeter): 29.82 inches Hg (1010.0 mb)
Winds: from the S (180 degrees) at 9 MPH (8 knots; 4.1 m/s)
Visibility: 6 or more miles (10+ km)
Ceiling: ceiling and visibility are OK
Clouds: unknown
Weather: no significant weather observed at this time

METAR text: UIII 181030Z 16004MPS CAVOK M07/M16 Q1010 R12/CLRD60 NOSIG RMK QFE715/0954
Conditions at: UIII (IRKUTSK , RU) observed 1030 UTC 18 February 2019
Temperature: -7.0°C (19°F)
Dewpoint: -16.0°C ( 3°F) [RH = 49%]
Pressure (altimeter): 29.82 inches Hg (1010.0 mb)
Winds: from the SSE (160 degrees) at 9 MPH (8 knots; 4.1 m/s)
Visibility: 6 or more miles (10+ km)
Ceiling: ceiling and visibility are OK
Clouds: unknown
Weather: no significant weather observed at this time

METAR text: UIII 181000Z 17002MPS CAVOK M04/M16 Q1010 R12/60D NOSIG RMK QFE715/0954
Conditions at: UIII (IRKUTSK , RU) observed 1000 UTC 18 February 2019
Temperature: -4.0°C (25°F)
Dewpoint: -16.0°C ( 3°F) [RH = 39%]
Pressure (altimeter): 29.82 inches Hg (1010.0 mb)
Winds: from the S (170 degrees) at 5 MPH (4 knots; 2.1 m/s)
Visibility: 6 or more miles (10+ km)
Ceiling: ceiling and visibility are OK
Clouds: unknown
Weather: no significant weather observed at this time

METAR text: UIII 180930Z 17004MPS CAVOK M03/M15 Q1009 R12/60D NOSIG RMK QFE715/0953
Conditions at: UIII (IRKUTSK , RU) observed 0930 UTC 18 February 2019
Temperature: -3.0°C (27°F)
Dewpoint: -15.0°C ( 5°F) [RH = 39%]
Pressure (altimeter): 29.79 inches Hg (1009.0 mb)
Winds: from the S (170 degrees) at 9 MPH (8 knots; 4.1 m/s)
Visibility: 6 or more miles (10+ km)
Ceiling: ceiling and visibility are OK
Clouds: unknown
Weather: no significant weather observed at this time

METAR text: UIII 180900Z 17004MPS CAVOK M03/M15 Q1009 R12/CLRD60 NOSIG RMK QFE715/0953
Conditions at: UIII (IRKUTSK , RU) observed 0900 UTC 18 February 2019
Temperature: -3.0°C (27°F)
Dewpoint: -15.0°C ( 5°F) [RH = 39%]
Pressure (altimeter): 29.79 inches Hg (1009.0 mb)
Winds: from the S (170 degrees) at 9 MPH (8 knots; 4.1 m/s)
Visibility: 6 or more miles (10+ km)
Ceiling: ceiling and visibility are OK
Clouds: unknown
Weather: no significant weather observed at this time

METAR text: UIII 180830Z 15005MPS CAVOK M02/M16 Q1009 R12/CLRD60 NOSIG RMK QFE715/0953
Conditions at: UIII (IRKUTSK , RU) observed 0830 UTC 18 February 2019
Temperature: -2.0°C (28°F)
Dewpoint: -16.0°C ( 3°F) [RH = 33%]
Pressure (altimeter): 29.79 inches Hg (1009.0 mb)
Winds: from the SSE (150 degrees) at 12 MPH (10 knots; 5.1 m/s)
Visibility: 6 or more miles (10+ km)
Ceiling: ceiling and visibility are OK
Clouds: unknown
Weather: no significant weather observed at this time

METAR text: UIII 180800Z 15005MPS CAVOK M02/M15 Q1009 R12/CLRD60 NOSIG RMK QFE715/0953
Conditions at: UIII (IRKUTSK , RU) observed 0800 UTC 18 February 2019
Temperature: -2.0°C (28°F)
Dewpoint: -15.0°C ( 5°F) [RH = 36%]
Pressure (altimeter): 29.79 inches Hg (1009.0 mb)
Winds: from the SSE (150 degrees) at 12 MPH (10 knots; 5.1 m/s)
Visibility: 6 or more miles (10+ km)
Ceiling: ceiling and visibility are OK
Clouds: unknown
Weather: no significant weather observed at this time

METAR text: UIII 180730Z 16004MPS CAVOK M01/M15 Q1009 R12/60D NOSIG RMK QFE715/0953
Conditions at: UIII (IRKUTSK , RU) observed 0730 UTC 18 February 2019
Temperature: -1.0°C (30°F)
Dewpoint: -15.0°C ( 5°F) [RH = 34%]
Pressure (altimeter): 29.79 inches Hg (1009.0 mb)
Winds: from the SSE (160 degrees) at 9 MPH (8 knots; 4.1 m/s)
Visibility: 6 or more miles (10+ km)
Ceiling: ceiling and visibility are OK
Clouds: unknown
Weather: no significant weather observed at this time

METAR text: UIII 180700Z 15004MPS CAVOK M02/M16 Q1009 R12/CLRD60 NOSIG RMK QFE715/0953
Conditions at: UIII (IRKUTSK , RU) observed 0700 UTC 18 February 2019
Temperature: -2.0°C (28°F)
Dewpoint: -16.0°C ( 3°F) [RH = 33%]
Pressure (altimeter): 29.79 inches Hg (1009.0 mb)
Winds: from the SSE (150 degrees) at 9 MPH (8 knots; 4.1 m/s)
Visibility: 6 or more miles (10+ km)
Ceiling: ceiling and visibility are OK
Clouds: unknown
Weather: no significant weather observed at this time

METAR text: UIII 180630Z 15004MPS CAVOK M02/M16 Q1010 R12/60D NOSIG RMK QFE715/0954
Conditions at: UIII (IRKUTSK , RU) observed 0630 UTC 18 February 2019
Temperature: -2.0°C (28°F)
Dewpoint: -16.0°C ( 3°F) [RH = 33%]
Pressure (altimeter): 29.82 inches Hg (1010.0 mb)
Winds: from the SSE (150 degrees) at 9 MPH (8 knots; 4.1 m/s)
Visibility: 6 or more miles (10+ km)
Ceiling: ceiling and visibility are OK
Clouds: unknown
Weather: no significant weather observed at this time

METAR text: UIII 180600Z 15004MPS CAVOK M02/M15 Q1010 R12/60D NOSIG RMK QFE715/0954
Conditions at: UIII (IRKUTSK , RU) observed 0600 UTC 18 February 2019
Temperature: -2.0°C (28°F)
Dewpoint: -15.0°C ( 5°F) [RH = 36%]
Pressure (altimeter): 29.82 inches Hg (1010.0 mb)
Winds: from the SSE (150 degrees) at 9 MPH (8 knots; 4.1 m/s)
Visibility: 6 or more miles (10+ km)
Ceiling: ceiling and visibility are OK
Clouds: unknown
Weather: no significant weather observed at this time

METAR text: UIII 180530Z 15005MPS CAVOK M03/M15 Q1010 R12/CLRD60 NOSIG RMK QFE715/0954
Conditions at: UIII (IRKUTSK , RU) observed 0530 UTC 18 February 2019
Temperature: -3.0°C (27°F)
Dewpoint: -15.0°C ( 5°F) [RH = 39%]
Pressure (altimeter): 29.82 inches Hg (1010.0 mb)
Winds: from the SSE (150 degrees) at 12 MPH (10 knots; 5.1 m/s)
Visibility: 6 or more miles (10+ km)
Ceiling: ceiling and visibility are OK
Clouds: unknown
Weather: no significant weather observed at this time

METAR text: UIII 180500Z 18003MPS CAVOK M04/M15 Q1010 R12/CLRD60 NOSIG RMK QFE715/0954
Conditions at: UIII (IRKUTSK , RU) observed 0500 UTC 18 February 2019
Temperature: -4.0°C (25°F)
Dewpoint: -15.0°C ( 5°F) [RH = 42%]
Pressure (altimeter): 29.82 inches Hg (1010.0 mb)
Winds: from the S (180 degrees) at 7 MPH (6 knots; 3.1 m/s)
Visibility: 6 or more miles (10+ km)
Ceiling: ceiling and visibility are OK
Clouds: unknown
Weather: no significant weather observed at this time

METAR text: UIII 180430Z 18003MPS CAVOK M06/M15 Q1011 R12/60D NOSIG RMK QFE716/0955
Conditions at: UIII (IRKUTSK , RU) observed 0430 UTC 18 February 2019
Temperature: -6.0°C (21°F)
Dewpoint: -15.0°C ( 5°F) [RH = 49%]
Pressure (altimeter): 29.85 inches Hg (1011.0 mb)
Winds: from the S (180 degrees) at 7 MPH (6 knots; 3.1 m/s)
Visibility: 6 or more miles (10+ km)
Ceiling: ceiling and visibility are OK
Clouds: unknown
Weather: no significant weather observed at this time

METAR text: UIII 180400Z 17002MPS CAVOK M07/M16 Q1011 R12/60D NOSIG RMK QFE716/0955
Conditions at: UIII (IRKUTSK , RU) observed 0400 UTC 18 February 2019
Temperature: -7.0°C (19°F)
Dewpoint: -16.0°C ( 3°F) [RH = 49%]
Pressure (altimeter): 29.85 inches Hg (1011.0 mb)
Winds: from the S (170 degrees) at 5 MPH (4 knots; 2.1 m/s)
Visibility: 6 or more miles (10+ km)
Ceiling: ceiling and visibility are OK
Clouds: unknown
Weather: no significant weather observed at this time

METAR text: UIII 180330Z VRB01MPS CAVOK M09/M16 Q1011 R12/CLRD60 NOSIG RMK QFE716/0955
Conditions at: UIII (IRKUTSK , RU) observed 0330 UTC 18 February 2019
Temperature: -9.0°C (16°F)
Dewpoint: -16.0°C ( 3°F) [RH = 57%]
Pressure (altimeter): 29.85 inches Hg (1011.0 mb)
Winds: variable direction winds at 2 MPH (2 knots; 1.0 m/s)
Visibility: 6 or more miles (10+ km)
Ceiling: ceiling and visibility are OK
Clouds: unknown
Weather: no significant weather observed at this time

METAR text: UIII 180300Z 10001MPS CAVOK M12/M18 Q1011 R12/60D NOSIG RMK QFE716/0955
Conditions at: UIII (IRKUTSK , RU) observed 0300 UTC 18 February 2019
Temperature: -12.0°C (10°F)
Dewpoint: -18.0°C (-0°F) [RH = 61%]
Pressure (altimeter): 29.85 inches Hg (1011.0 mb)
Winds: from the E (100 degrees) at 2 MPH (2 knots; 1.0 m/s)
Visibility: 6 or more miles (10+ km)
Ceiling: ceiling and visibility are OK
Clouds: unknown
Weather: no significant weather observed at this time

METAR text: UIII 180230Z 09002MPS CAVOK M13/M19 Q1012 R12/CLRD60 NOSIG RMK QFE717/0956
Conditions at: UIII (IRKUTSK , RU) observed 0230 UTC 18 February 2019
Temperature: -13.0°C ( 9°F)
Dewpoint: -19.0°C (-2°F) [RH = 61%]
Pressure (altimeter): 29.88 inches Hg (1012.0 mb)
Winds: from the E (90 degrees) at 5 MPH (4 knots; 2.1 m/s)
Visibility: 6 or more miles (10+ km)
Ceiling: ceiling and visibility are OK
Clouds: unknown
Weather: no significant weather observed at this time

METAR text: UIII 180200Z 09001MPS CAVOK M15/M19 Q1012 R12/CLRD60 NOSIG RMK QFE717/0956
Conditions at: UIII (IRKUTSK , RU) observed 0200 UTC 18 February 2019
Temperature: -15.0°C ( 5°F)
Dewpoint: -19.0°C (-2°F) [RH = 71%]
Pressure (altimeter): 29.88 inches Hg (1012.0 mb)
Winds: from the E (90 degrees) at 2 MPH (2 knots; 1.0 m/s)
Visibility: 6 or more miles (10+ km)
Ceiling: ceiling and visibility are OK
Clouds: unknown
Weather: no significant weather observed at this time

METAR text: UIII 180130Z 06001MPS CAVOK M16/M19 Q1012 R12/CLRD60 NOSIG RMK QFE717/0956
Conditions at: UIII (IRKUTSK , RU) observed 0130 UTC 18 February 2019
Temperature: -16.0°C ( 3°F)
Dewpoint: -19.0°C (-2°F) [RH = 78%]
Pressure (altimeter): 29.88 inches Hg (1012.0 mb)
Winds: from the ENE (60 degrees) at 2 MPH (2 knots; 1.0 m/s)
Visibility: 6 or more miles (10+ km)
Ceiling: ceiling and visibility are OK
Clouds: unknown
Weather: no significant weather observed at this time

METAR text: UIII 180100Z 10002MPS CAVOK M17/M20 Q1012 R12/CLRD60 NOSIG RMK QFE717/0956
Conditions at: UIII (IRKUTSK , RU) observed 0100 UTC 18 February 2019
Temperature: -17.0°C ( 1°F)
Dewpoint: -20.0°C (-4°F) [RH = 77%]
Pressure (altimeter): 29.88 inches Hg (1012.0 mb)
Winds: from the E (100 degrees) at 5 MPH (4 knots; 2.1 m/s)
Visibility: 6 or more miles (10+ km)
Ceiling: ceiling and visibility are OK
Clouds: unknown
Weather: no significant weather observed at this time

METAR text: UIII 180030Z 11002MPS CAVOK M16/M19 Q1012 R12/CLRD60 NOSIG RMK QFE717/0956
Conditions at: UIII (IRKUTSK , RU) observed 0030 UTC 18 February 2019
Temperature: -16.0°C ( 3°F)
Dewpoint: -19.0°C (-2°F) [RH = 78%]
Pressure (altimeter): 29.88 inches Hg (1012.0 mb)
Winds: from the ESE (110 degrees) at 5 MPH (4 knots; 2.1 m/s)
Visibility: 6 or more miles (10+ km)
Ceiling: ceiling and visibility are OK
Clouds: unknown
Weather: no significant weather observed at this time

METAR text: UIII 180000Z 10003MPS CAVOK M18/M21 Q1011 R12/CLRD60 NOSIG RMK QFE717/0956
Conditions at: UIII (IRKUTSK , RU) observed 0000 UTC 18 February 2019
Temperature: -18.0°C (-0°F)
Dewpoint: -21.0°C (-6°F) [RH = 77%]
Pressure (altimeter): 29.85 inches Hg (1011.0 mb)
Winds: from the E (100 degrees) at 7 MPH (6 knots; 3.1 m/s)
Visibility: 6 or more miles (10+ km)
Ceiling: ceiling and visibility are OK
Clouds: unknown
Weather: no significant weather observed at this time

METAR text: UIII 172330Z 10003MPS CAVOK M17/M20 Q1011 R12/60D NOSIG RMK QFE717/0956
Conditions at: UIII (IRKUTSK , RU) observed 2330 UTC 17 February 2019
Temperature: -17.0°C ( 1°F)
Dewpoint: -20.0°C (-4°F) [RH = 77%]
Pressure (altimeter): 29.85 inches Hg (1011.0 mb)
Winds: from the E (100 degrees) at 7 MPH (6 knots; 3.1 m/s)
Visibility: 6 or more miles (10+ km)
Ceiling: ceiling and visibility are OK
Clouds: unknown
Weather: no significant weather observed at this time

METAR text: UIII 172300Z 09003MPS CAVOK M18/M21 Q1012 R12/60D NOSIG RMK QFE717/0956
Conditions at: UIII (IRKUTSK , RU) observed 2300 UTC 17 February 2019
Temperature: -18.0°C (-0°F)
Dewpoint: -21.0°C (-6°F) [RH = 77%]
Pressure (altimeter): 29.88 inches Hg (1012.0 mb)
Winds: from the E (90 degrees) at 7 MPH (6 knots; 3.1 m/s)
Visibility: 6 or more miles (10+ km)
Ceiling: ceiling and visibility are OK
Clouds: unknown
Weather: no significant weather observed at this time

METAR text: UIII 172230Z 10003MPS CAVOK M17/M19 Q1011 R12/CLRD60 NOSIG RMK QFE717/0956
Conditions at: UIII (IRKUTSK , RU) observed 2230 UTC 17 February 2019
Temperature: -17.0°C ( 1°F)
Dewpoint: -19.0°C (-2°F) [RH = 84%]
Pressure (altimeter): 29.85 inches Hg (1011.0 mb)
Winds: from the E (100 degrees) at 7 MPH (6 knots; 3.1 m/s)
Visibility: 6 or more miles (10+ km)
Ceiling: ceiling and visibility are OK
Clouds: unknown
Weather: no significant weather observed at this time

METAR text: UIII 172200Z 08002MPS CAVOK M17/M20 Q1012 R12/CLRD60 NOSIG RMK QFE717/0956
Conditions at: UIII (IRKUTSK , RU) observed 2200 UTC 17 February 2019
Temperature: -17.0°C ( 1°F)
Dewpoint: -20.0°C (-4°F) [RH = 77%]
Pressure (altimeter): 29.88 inches Hg (1012.0 mb)
Winds: from the E (80 degrees) at 5 MPH (4 knots; 2.1 m/s)
Visibility: 6 or more miles (10+ km)
Ceiling: ceiling and visibility are OK
Clouds: unknown
Weather: no significant weather observed at this time

METAR text: UIII 172130Z 10002MPS CAVOK M17/M20 Q1012 R12/60D NOSIG RMK QFE717/0956
Conditions at: UIII (IRKUTSK , RU) observed 2130 UTC 17 February 2019
Temperature: -17.0°C ( 1°F)
Dewpoint: -20.0°C (-4°F) [RH = 77%]
Pressure (altimeter): 29.88 inches Hg (1012.0 mb)
Winds: from the E (100 degrees) at 5 MPH (4 knots; 2.1 m/s)
Visibility: 6 or more miles (10+ km)
Ceiling: ceiling and visibility are OK
Clouds: unknown
Weather: no significant weather observed at this time

METAR text: UIII 172100Z VRB01MPS CAVOK M18/M20 Q1012 R12/CLRD60 NOSIG RMK QFE717/0956
Conditions at: UIII (IRKUTSK , RU) observed 2100 UTC 17 February 2019
Temperature: -18.0°C (-0°F)
Dewpoint: -20.0°C (-4°F) [RH = 84%]
Pressure (altimeter): 29.88 inches Hg (1012.0 mb)
Winds: variable direction winds at 2 MPH (2 knots; 1.0 m/s)
Visibility: 6 or more miles (10+ km)
Ceiling: ceiling and visibility are OK
Clouds: unknown
Weather: no significant weather observed at this time

METAR text: UIII 172030Z 00000MPS CAVOK M17/M19 Q1012 R12/CLRD60 NOSIG RMK QFE717/0956
Conditions at: UIII (IRKUTSK , RU) observed 2030 UTC 17 February 2019
Temperature: -17.0°C ( 1°F)
Dewpoint: -19.0°C (-2°F) [RH = 84%]
Pressure (altimeter): 29.88 inches Hg (1012.0 mb)
Winds: calm
Visibility: 6 or more miles (10+ km)
Ceiling: ceiling and visibility are OK
Clouds: unknown
Weather: no significant weather observed at this time

METAR text: UIII 172000Z 11002MPS CAVOK M15/M18 Q1012 R12/60D NOSIG RMK QFE717/0956
Conditions at: UIII (IRKUTSK , RU) observed 2000 UTC 17 February 2019
Temperature: -15.0°C ( 5°F)
Dewpoint: -18.0°C (-0°F) [RH = 78%]
Pressure (altimeter): 29.88 inches Hg (1012.0 mb)
Winds: from the ESE (110 degrees) at 5 MPH (4 knots; 2.1 m/s)
Visibility: 6 or more miles (10+ km)
Ceiling: ceiling and visibility are OK
Clouds: unknown
Weather: no significant weather observed at this time

METAR text: UIII 171930Z 10003MPS CAVOK M16/M19 Q1012 R12/60D NOSIG RMK QFE717/0956
Conditions at: UIII (IRKUTSK , RU) observed 1930 UTC 17 February 2019
Temperature: -16.0°C ( 3°F)
Dewpoint: -19.0°C (-2°F) [RH = 78%]
Pressure (altimeter): 29.88 inches Hg (1012.0 mb)
Winds: from the E (100 degrees) at 7 MPH (6 knots; 3.1 m/s)
Visibility: 6 or more miles (10+ km)
Ceiling: ceiling and visibility are OK
Clouds: unknown
Weather: no significant weather observed at this time

Forecast for: UIII (IRKUTSK , RU)
Text: TAF UIII 190500Z 1906/2006 VRB01MPS CAVOK
Forecast period: 0600 UTC 19 February 2019 to 0600 UTC 20 February 2019
Forecast type: FROM: standard forecast or significant change
Winds: variable direction winds at 2 MPH (2 knots; 1.0 m/s)
Visibility: 6 or more miles 10+ km)
Ceiling: unknown
Clouds: missing
Weather: NSW  (no significant weather)